Accueil
METAR-TAF:

METAR-TAF

Aéroports :

Loreto, Mexique

latitude: 26-01N, longitude: 111-21W, altitude: 15 m

Observation

Le bulletin a été fait il y a 8 heures et 2 minutes, à 01:40 UTC
Vent 6 kt de nord
Température 18°C
Humidité 49%
Pression 1015 hPa
Visibilité: 12.9 km
Quelques nuages à une hauteur de 24000 ft

METAR: MMLT 240140Z 01006KT 8SM FEW240 18/07 A2997 RMK 8/001

Heure: 02:42 (09:42 UTC)

Prévision

Le bulletin a été fait il y a 4 heures et 49 minutes, à 04:53 UTC
Prévision valable du 24 à 06 UTC au 25 à 06 UTC
Vent 5 kt de nord/nord-est
Visibilité: 10 km
Nuages épars à une hauteur de 25000 ft
A partir de 24 à 1700 UTC
Vent 12 kt de nord/nord-est
Visibilité: 10 km
Nuages épars à une hauteur de 25000 ft
A partir de 25 à 0300 UTC
Vent 5 kt de nord/nord-est
Visibilité: 10 km
Nuages épars à une hauteur de 25000 ft

TAF: MMLT 240453Z 2406/2506 03005KT P6SM SCT250 FM241700 03012KT P6SM SCT250 FM250300 03005KT P6SM SCT250

Observations et prévisions météorologiques de plus de 4000 aéroports (messages METAR et TAF).

Les stations disponibles sont représentées par des disques jaunes et rouges sur la carte.

Passer la souris dessus pour voir le nom de la station.

Cliquer dessus pour voir les observations et prévisions météorologiques.

Pour changer de carte: cliquez sur les boutons verts avec une croix noire pour zoomer, sur le bouton vert avec un tiret pour effectuer un zoom arrière, ou sur les flèches vertes pour les cartes adjacentes.


METAR-TAF: